createdAt,value
2019-04-04T00:01:06.085Z,3.03
2019-04-04T00:06:09.798Z,3.10
2019-04-04T00:11:12.362Z,3.10
2019-04-04T00:16:15.986Z,3.10
2019-04-04T00:21:17.634Z,2.80
2019-04-04T00:26:20.160Z,3.10
2019-04-04T00:31:22.754Z,2.97
2019-04-04T00:36:25.445Z,3.23
2019-04-04T00:41:28.028Z,3.30
2019-04-04T00:46:31.036Z,3.10
2019-04-04T00:51:33.200Z,3.30
2019-04-04T00:56:35.776Z,3.30
2019-04-04T01:01:38.406Z,3.40
2019-04-04T01:06:41.004Z,3.60
2019-04-04T01:11:43.554Z,3.70
2019-04-04T01:16:46.243Z,3.53
2019-04-04T01:21:49.021Z,3.70
2019-04-04T01:26:51.654Z,3.60
2019-04-04T01:31:54.385Z,4.27
2019-04-04T01:36:57.154Z,4.20
2019-04-04T01:41:59.615Z,3.90
2019-04-04T01:47:02.181Z,4.07
2019-04-04T01:52:04.761Z,3.83
2019-04-04T01:57:08.032Z,4.50
2019-04-04T02:02:09.912Z,3.87
2019-04-04T02:07:12.400Z,3.97
2019-04-04T02:12:14.949Z,3.77
2019-04-04T02:17:17.464Z,4.20
2019-04-04T02:22:20.006Z,3.53
2019-04-04T02:27:22.518Z,3.60
2019-04-04T02:32:26.670Z,3.57
2019-04-04T02:37:27.724Z,3.43
2019-04-04T02:42:30.268Z,3.40
2019-04-04T02:47:32.807Z,3.47
2019-04-04T02:52:35.397Z,3.17
2019-04-04T02:57:41.188Z,3.20
2019-04-04T03:02:40.585Z,3.10
2019-04-04T03:07:43.151Z,2.57
2019-04-04T03:12:45.731Z,3.43
2019-04-04T03:17:48.248Z,2.60
2019-04-04T03:22:50.818Z,2.73
2019-04-04T03:27:55.482Z,2.67
2019-04-04T03:32:55.938Z,2.77
2019-04-04T03:37:58.459Z,2.97
2019-04-04T03:43:01.041Z,3.43
2019-04-04T03:48:03.600Z,3.27
2019-04-04T03:53:06.328Z,3.47
2019-04-04T03:58:08.889Z,3.57
2019-04-04T04:03:11.450Z,3.73
2019-04-04T04:08:13.939Z,3.90
2019-04-04T04:13:17.540Z,4.20
2019-04-04T04:18:21.454Z,3.60
2019-04-04T04:23:24.042Z,4.80
2019-04-04T04:28:24.482Z,4.80
2019-04-04T04:33:29.310Z,4.30
2019-04-04T04:38:29.656Z,4.63
2019-04-04T04:43:33.575Z,4.77
2019-04-04T04:48:34.729Z,4.70
2019-04-04T04:53:37.275Z,4.93
2019-04-04T04:58:41.742Z,5.00
2019-04-04T05:03:42.401Z,5.03
2019-04-04T05:08:44.930Z,6.00
2019-04-04T05:13:47.505Z,5.40
2019-04-04T05:18:50.085Z,5.30
2019-04-04T05:23:52.605Z,5.60
2019-04-04T05:28:56.988Z,5.63
2019-04-04T05:33:59.125Z,5.90
2019-04-04T05:39:00.442Z,6.07
2019-04-04T05:44:03.106Z,6.53
2019-04-04T05:49:07.866Z,6.80
2019-04-04T05:54:08.432Z,8.20
2019-04-04T05:59:10.949Z,8.27
2019-04-04T06:04:13.495Z,8.10
2019-04-04T06:09:16.096Z,8.10
2019-04-04T06:14:20.561Z,8.57
2019-04-04T06:19:21.202Z,7.93
2019-04-04T06:24:25.206Z,7.47
2019-04-04T06:29:26.316Z,8.43
2019-04-04T06:34:28.952Z,9.43
2019-04-04T06:39:31.551Z,9.23
2019-04-04T06:44:34.110Z,10.63
2019-04-04T06:49:36.744Z,9.77
2019-04-04T06:54:39.308Z,9.80
2019-04-04T06:59:43.331Z,10.27
2019-04-04T07:04:44.456Z,8.83
2019-04-04T07:09:48.261Z,9.70
2019-04-04T07:14:49.651Z,12.30
2019-04-04T07:19:52.115Z,10.07
2019-04-04T07:24:54.657Z,10.13
2019-04-04T07:29:57.316Z,9.77
2019-04-04T07:34:59.854Z,9.10
2019-04-04T07:40:03.551Z,8.27
2019-04-04T07:45:05.315Z,10.20
2019-04-04T07:50:08.027Z,8.60
2019-04-04T07:55:11.024Z,8.30
2019-04-04T08:00:13.494Z,8.00
2019-04-04T08:05:16.059Z,8.10
2019-04-04T08:10:20.744Z,8.03
2019-04-04T08:15:21.355Z,7.77
2019-04-04T08:20:23.916Z,8.23
2019-04-04T08:25:26.604Z,7.57
2019-04-04T08:30:29.230Z,7.30
2019-04-04T08:35:31.888Z,7.80
2019-04-04T08:40:34.510Z,7.47
2019-04-04T08:45:37.102Z,7.00
2019-04-04T08:50:39.721Z,7.57
2019-04-04T08:55:42.276Z,6.83
2019-04-04T09:00:44.911Z,7.17
2019-04-04T09:05:47.494Z,6.63
2019-04-04T09:10:50.138Z,6.97
2019-04-04T09:15:52.712Z,6.83
2019-04-04T09:20:55.350Z,6.27
2019-04-04T09:26:05.307Z,6.87
2019-04-04T09:31:00.562Z,7.33
2019-04-04T09:36:03.204Z,7.43
2019-04-04T09:41:05.875Z,7.50
2019-04-04T09:46:08.504Z,8.37
2019-04-04T09:51:11.098Z,8.60
2019-04-04T09:56:13.710Z,9.00
2019-04-04T10:01:16.314Z,9.07
2019-04-04T10:06:18.988Z,10.20
2019-04-04T10:11:21.604Z,10.10
2019-04-04T10:16:24.214Z,10.77
2019-04-04T10:21:26.840Z,11.77
2019-04-04T10:26:29.510Z,11.87
2019-04-04T10:31:32.101Z,12.37
2019-04-04T10:36:34.678Z,12.47
2019-04-04T10:41:37.270Z,12.77
2019-04-04T10:46:39.903Z,11.07
2019-04-04T10:51:42.519Z,10.93
2019-04-04T10:56:45.100Z,11.83
2019-04-04T11:01:47.680Z,11.50
2019-04-04T11:06:50.298Z,10.87
2019-04-04T11:11:52.868Z,11.07
2019-04-04T11:16:55.473Z,11.73
2019-04-04T11:21:58.133Z,11.47
2019-04-04T11:27:00.726Z,11.77
2019-04-04T11:32:03.436Z,10.77
2019-04-04T11:37:06.059Z,10.97
2019-04-04T11:42:08.678Z,10.50
2019-04-04T11:47:11.298Z,10.47
2019-04-04T11:52:13.876Z,10.53
2019-04-04T11:57:16.432Z,10.77
2019-04-04T12:02:19.028Z,10.30
2019-04-04T12:07:21.638Z,10.33
2019-04-04T12:12:24.284Z,10.33
2019-04-04T12:17:26.866Z,10.43
2019-04-04T12:22:29.481Z,10.20
2019-04-04T12:27:32.045Z,10.53
2019-04-04T12:32:34.622Z,9.90
2019-04-04T12:37:37.186Z,10.27
2019-04-04T12:42:39.775Z,11.20
2019-04-04T12:47:42.332Z,10.37
2019-04-04T12:52:44.942Z,10.50
2019-04-04T12:57:47.555Z,10.57
2019-04-04T13:02:50.115Z,11.00
2019-04-04T13:07:52.730Z,10.63
2019-04-04T13:12:55.336Z,10.80
2019-04-04T13:17:57.903Z,10.20
2019-04-04T13:23:00.464Z,10.60
2019-04-04T13:28:03.119Z,10.07
2019-04-04T13:33:05.716Z,10.10
2019-04-04T13:38:08.342Z,10.43
2019-04-04T13:43:10.933Z,10.40
2019-04-04T13:48:13.562Z,10.90
2019-04-04T13:53:16.179Z,11.17
2019-04-04T13:58:21.892Z,10.97
2019-04-04T14:03:21.537Z,11.13
2019-04-04T14:08:24.127Z,11.30
2019-04-04T14:13:26.755Z,10.80
2019-04-04T14:18:39.615Z,10.60
2019-04-04T14:23:31.936Z,10.83
2019-04-04T14:28:34.594Z,10.20
2019-04-04T14:33:37.223Z,10.03
2019-04-04T14:38:39.774Z,9.27
2019-04-04T14:43:42.330Z,8.10
2019-04-04T14:48:44.942Z,9.00
2019-04-04T14:53:47.533Z,7.90
2019-04-04T14:58:50.110Z,7.83
2019-04-04T15:03:52.701Z,7.77
2019-04-04T15:08:55.407Z,7.20
2019-04-04T15:13:58.049Z,7.17
2019-04-04T15:19:00.732Z,7.37
2019-04-04T15:24:03.473Z,7.13
2019-04-04T15:29:06.084Z,6.80
2019-04-04T15:34:08.652Z,7.10
2019-04-04T15:39:11.262Z,6.10
2019-04-04T15:44:13.846Z,6.07
2019-04-04T15:49:16.471Z,5.90
2019-04-04T15:54:19.126Z,5.77
2019-04-04T15:59:21.702Z,5.43
2019-04-04T16:04:24.175Z,5.07
2019-04-04T16:09:26.686Z,5.67
2019-04-04T16:14:29.344Z,5.40
2019-04-04T16:19:32.000Z,5.60
2019-04-04T16:24:34.670Z,5.20
2019-04-04T16:29:37.212Z,5.00
2019-04-04T16:34:39.790Z,4.77
2019-04-04T16:39:42.692Z,3.90
2019-04-04T16:44:45.342Z,4.47
2019-04-04T16:49:48.864Z,3.90
2019-04-04T16:54:53.709Z,4.67
2019-04-04T16:59:54.140Z,4.57
2019-04-04T17:04:56.736Z,4.23
2019-04-04T17:09:59.327Z,4.30
2019-04-04T17:15:01.940Z,4.20
2019-04-04T17:25:09.594Z,3.90
2019-04-04T17:30:12.816Z,4.07
2019-04-04T17:35:14.948Z,3.90
2019-04-04T17:40:17.994Z,3.83
2019-04-04T17:45:20.794Z,4.83
2019-04-04T17:50:23.106Z,4.13
2019-04-04T17:55:26.373Z,4.50
2019-04-04T18:00:28.740Z,4.17
2019-04-04T18:05:31.262Z,4.00
2019-04-04T18:10:34.379Z,4.23
2019-04-04T18:15:37.167Z,3.83
2019-04-04T18:20:39.846Z,4.57
2019-04-04T18:25:42.653Z,4.23
2019-04-04T18:30:45.196Z,4.40
2019-04-04T18:35:47.899Z,4.93
2019-04-04T18:40:50.640Z,4.90
2019-04-04T18:45:53.234Z,5.20
2019-04-04T18:50:55.795Z,5.60
2019-04-04T18:55:58.398Z,5.90
2019-04-04T19:01:01.054Z,5.53
2019-04-04T19:06:03.636Z,5.70
2019-04-04T19:11:06.366Z,6.53
2019-04-04T19:16:09.005Z,6.10
2019-04-04T19:21:11.541Z,6.43
2019-04-04T19:26:14.226Z,6.97
2019-04-04T19:31:16.888Z,6.97
2019-04-04T19:36:19.556Z,7.47
2019-04-04T19:41:22.170Z,7.60
2019-04-04T19:46:36.575Z,7.10
2019-04-04T19:51:27.378Z,7.67
2019-04-04T19:56:30.231Z,8.80
2019-04-04T20:01:32.869Z,8.63
2019-04-04T20:06:35.522Z,9.93
2019-04-04T20:11:38.171Z,9.10
2019-04-04T20:16:40.741Z,8.97
2019-04-04T20:21:43.376Z,9.97
2019-04-04T20:26:45.948Z,10.43
2019-04-04T20:31:48.582Z,9.83
2019-04-04T20:36:51.199Z,10.03
2019-04-04T20:41:53.782Z,10.20
2019-04-04T20:46:58.142Z,9.30
2019-04-04T20:52:00.707Z,9.40
2019-04-04T20:57:03.286Z,8.60
2019-04-04T21:02:05.835Z,8.40
2019-04-04T21:07:08.354Z,8.20
2019-04-04T21:12:11.459Z,8.10
2019-04-04T21:17:13.533Z,8.07
2019-04-04T21:22:27.012Z,7.30
2019-04-04T21:27:19.036Z,7.00
2019-04-04T21:32:21.353Z,7.43
2019-04-04T21:37:23.912Z,6.90
2019-04-04T21:42:26.466Z,6.80
2019-04-04T21:47:29.062Z,7.33
2019-04-04T21:52:31.702Z,6.67
2019-04-04T21:57:34.220Z,6.70
2019-04-04T22:02:36.845Z,8.30
2019-04-04T22:07:39.440Z,8.50
2019-04-04T22:12:41.974Z,9.13
2019-04-04T22:17:44.555Z,9.97
2019-04-04T22:22:47.052Z,9.20
2019-04-04T22:27:49.590Z,9.63
2019-04-04T22:32:52.092Z,10.27
2019-04-04T22:37:54.669Z,10.33
2019-04-04T22:42:57.548Z,9.90
2019-04-04T22:48:00.121Z,9.13
2019-04-04T22:53:02.723Z,9.50
2019-04-04T22:58:05.259Z,8.30
2019-04-04T23:03:07.936Z,8.83
2019-04-04T23:08:10.484Z,8.97
2019-04-04T23:13:13.028Z,8.70
2019-04-04T23:18:15.554Z,8.27
2019-04-04T23:23:18.074Z,8.03
2019-04-04T23:28:20.616Z,8.40
2019-04-04T23:33:23.194Z,8.23
2019-04-04T23:38:25.708Z,8.23
2019-04-04T23:43:28.248Z,8.67
2019-04-04T23:48:30.798Z,8.60
2019-04-04T23:53:33.296Z,8.43
2019-04-04T23:58:35.870Z,8.50
